createdAt,value
2018-05-18T00:00:54.763Z,12.50
2018-05-18T00:03:22.288Z,12.50
2018-05-18T00:05:49.843Z,12.50
2018-05-18T00:08:17.599Z,12.50
2018-05-18T00:10:46.145Z,12.20
2018-05-18T00:13:13.691Z,12.20
2018-05-18T00:15:41.305Z,12.10
2018-05-18T00:18:09.699Z,12.20
2018-05-18T00:20:37.318Z,12.20
2018-05-18T00:23:04.911Z,12.20
2018-05-18T00:25:32.459Z,12.20
2018-05-18T00:28:00.018Z,12.20
2018-05-18T00:30:27.698Z,12.10
2018-05-18T00:32:55.239Z,12.10
2018-05-18T00:35:22.919Z,12.10
2018-05-18T00:37:50.462Z,12.10
2018-05-18T00:40:18.021Z,12.10
2018-05-18T00:42:46.423Z,12.10
2018-05-18T00:45:14.063Z,12.10
2018-05-18T00:47:41.641Z,12.10
2018-05-18T00:50:09.998Z,12.00
2018-05-18T00:52:37.566Z,12.00
2018-05-18T00:55:16.924Z,12.00
2018-05-18T00:57:44.455Z,11.90
2018-05-18T01:00:12.050Z,11.80
2018-05-18T01:02:39.690Z,11.70
2018-05-18T01:05:07.194Z,11.80
2018-05-18T01:07:34.800Z,11.80
2018-05-18T01:10:02.485Z,11.70
2018-05-18T01:12:30.042Z,11.70
2018-05-18T01:14:58.440Z,11.80
2018-05-18T01:17:26.007Z,11.70
2018-05-18T01:19:53.664Z,11.70
2018-05-18T01:22:21.527Z,11.60
2018-05-18T01:24:49.190Z,11.60
2018-05-18T01:27:16.807Z,11.60
2018-05-18T01:29:44.416Z,11.60
2018-05-18T01:32:12.080Z,11.60
2018-05-18T01:34:39.739Z,11.50
2018-05-18T01:37:07.272Z,11.50
2018-05-18T01:39:34.962Z,11.30
2018-05-18T01:42:02.523Z,11.40
2018-05-18T01:44:30.238Z,11.40
2018-05-18T01:46:57.793Z,11.40
2018-05-18T01:49:25.408Z,11.50
2018-05-18T01:51:53.010Z,11.40
2018-05-18T01:54:20.735Z,11.40
2018-05-18T01:56:48.500Z,11.40
2018-05-18T01:59:16.193Z,11.30
2018-05-18T02:01:43.922Z,11.30
2018-05-18T02:04:11.646Z,11.20
2018-05-18T02:06:39.356Z,11.20
2018-05-18T02:11:39.316Z,11.20
2018-05-18T02:14:06.945Z,11.10
2018-05-18T02:16:34.717Z,11.10
2018-05-18T02:19:02.467Z,11.10
2018-05-18T02:21:30.865Z,11.10
2018-05-18T02:23:58.506Z,11.10
2018-05-18T02:26:26.187Z,11.10
2018-05-18T02:28:53.851Z,11.10
2018-05-18T02:31:21.491Z,11.10
2018-05-18T02:33:49.152Z,11.00
2018-05-18T02:36:16.813Z,11.00
2018-05-18T02:38:45.271Z,10.90
2018-05-18T02:41:12.840Z,10.80
2018-05-18T02:43:40.462Z,10.90
2018-05-18T02:46:08.069Z,10.90
2018-05-18T02:48:35.759Z,10.90
2018-05-18T02:51:03.371Z,10.80
2018-05-18T02:53:30.981Z,10.80
2018-05-18T02:55:58.617Z,10.80
2018-05-18T02:58:26.952Z,10.90
2018-05-18T03:00:54.582Z,10.80
2018-05-18T03:03:22.244Z,10.80
2018-05-18T03:05:49.842Z,10.80
2018-05-18T03:08:17.526Z,10.80
2018-05-18T03:10:45.059Z,10.70
2018-05-18T03:13:12.610Z,10.60
2018-05-18T03:15:40.246Z,10.70
2018-05-18T03:18:07.835Z,10.70
2018-05-18T03:20:35.372Z,10.80
2018-05-18T03:23:03.673Z,10.80
2018-05-18T03:25:31.250Z,10.80
2018-05-18T03:27:58.763Z,10.80
2018-05-18T03:30:26.424Z,10.80
2018-05-18T03:32:54.802Z,10.80
2018-05-18T03:35:23.054Z,10.80
2018-05-18T03:37:51.412Z,10.80
2018-05-18T03:40:19.104Z,10.80
2018-05-18T03:42:46.782Z,10.80
2018-05-18T03:45:14.612Z,10.90
2018-05-18T03:47:42.166Z,10.80
2018-05-18T03:50:09.673Z,10.80
2018-05-18T03:52:37.230Z,10.90
2018-05-18T03:55:05.503Z,10.90
2018-05-18T03:57:33.087Z,10.90
2018-05-18T04:00:00.679Z,10.90
2018-05-18T04:02:39.932Z,10.90
2018-05-18T04:05:19.323Z,10.80
2018-05-18T04:07:58.551Z,10.80
2018-05-18T04:10:26.202Z,10.80
2018-05-18T04:12:53.627Z,10.80
2018-05-18T04:15:21.987Z,10.80
2018-05-18T04:17:49.494Z,10.70
2018-05-18T04:20:17.042Z,10.80
2018-05-18T04:22:45.294Z,10.70
2018-05-18T04:25:12.788Z,10.70
2018-05-18T04:27:40.293Z,10.70
2018-05-18T04:30:08.042Z,10.70
2018-05-18T04:32:35.471Z,10.50
2018-05-18T04:35:02.984Z,10.60
2018-05-18T04:37:30.557Z,10.60
2018-05-18T04:39:58.181Z,10.50
2018-05-18T04:42:25.707Z,10.60
2018-05-18T04:44:53.983Z,10.50
2018-05-18T04:47:21.517Z,10.40
2018-05-18T04:49:49.089Z,10.50
2018-05-18T04:52:16.639Z,10.50
2018-05-18T04:54:44.127Z,10.50
2018-05-18T04:57:12.375Z,10.50
2018-05-18T04:59:39.988Z,10.40
2018-05-18T05:02:07.537Z,10.50
2018-05-18T05:04:35.105Z,10.60
2018-05-18T05:07:02.662Z,12.70
2018-05-18T05:09:30.245Z,10.70
2018-05-18T05:11:57.945Z,10.80
2018-05-18T05:14:25.616Z,10.70
2018-05-18T05:16:53.128Z,10.70
2018-05-18T05:19:20.729Z,10.70
2018-05-18T05:21:48.345Z,10.70
2018-05-18T05:24:15.949Z,10.80
2018-05-18T05:26:43.480Z,11.00
2018-05-18T05:29:11.067Z,11.00
2018-05-18T05:31:38.758Z,10.90
2018-05-18T05:34:06.391Z,11.00
2018-05-18T05:36:34.076Z,10.90
2018-05-18T05:39:01.639Z,10.90
2018-05-18T05:41:29.189Z,10.90
2018-05-18T05:43:56.754Z,11.10
2018-05-18T05:46:24.374Z,11.20
2018-05-18T05:48:51.870Z,11.30
2018-05-18T05:51:19.398Z,11.50
2018-05-18T05:53:47.097Z,11.50
2018-05-18T05:56:14.904Z,11.50
2018-05-18T05:58:42.461Z,11.60
2018-05-18T06:01:10.330Z,11.80
2018-05-18T06:03:37.890Z,11.90
2018-05-18T06:06:05.407Z,11.90
2018-05-18T06:08:33.220Z,11.90
2018-05-18T06:11:00.834Z,12.00
2018-05-18T06:13:28.391Z,11.90
2018-05-18T06:15:56.875Z,11.90
2018-05-18T06:18:24.378Z,12.00
2018-05-18T06:20:51.966Z,11.90
2018-05-18T06:23:19.656Z,11.90
2018-05-18T06:25:47.214Z,12.00
2018-05-18T06:28:14.752Z,12.20
2018-05-18T06:30:42.352Z,12.50
2018-05-18T06:33:09.815Z,12.80
2018-05-18T06:35:37.566Z,13.10
2018-05-18T06:38:05.126Z,13.30
2018-05-18T06:40:32.589Z,13.30
2018-05-18T06:43:00.135Z,13.30
2018-05-18T06:45:27.619Z,13.40
2018-05-18T06:47:55.166Z,13.30
2018-05-18T06:50:22.674Z,13.10
2018-05-18T06:52:50.267Z,13.10
2018-05-18T06:55:17.847Z,13.20
2018-05-18T06:57:45.327Z,13.10
2018-05-18T07:00:13.023Z,13.30
2018-05-18T07:02:40.530Z,13.40
2018-05-18T07:05:08.026Z,13.50
2018-05-18T07:07:35.581Z,13.50
2018-05-18T07:10:03.060Z,13.50
2018-05-18T07:12:30.604Z,13.50
2018-05-18T07:14:58.080Z,13.60
2018-05-18T07:17:25.637Z,13.40
2018-05-18T07:19:53.276Z,13.20
2018-05-18T07:22:20.744Z,13.10
2018-05-18T07:24:48.258Z,12.80
2018-05-18T07:27:16.030Z,12.60
2018-05-18T07:29:43.495Z,12.70
2018-05-18T07:32:11.867Z,13.00
2018-05-18T07:34:39.628Z,13.00
2018-05-18T07:37:07.136Z,13.10
2018-05-18T07:39:34.619Z,13.30
2018-05-18T07:42:02.315Z,13.20
2018-05-18T07:44:30.083Z,13.20
2018-05-18T07:46:57.678Z,13.30
2018-05-18T07:49:25.239Z,13.30
2018-05-18T07:51:52.829Z,13.30
2018-05-18T07:54:20.356Z,13.30
2018-05-18T07:56:48.300Z,13.30
2018-05-18T07:59:16.712Z,13.20
2018-05-18T08:01:44.262Z,13.20
2018-05-18T08:04:12.613Z,13.80
2018-05-18T08:06:40.518Z,13.80
2018-05-18T08:09:08.173Z,14.30
2018-05-18T08:11:35.947Z,14.50
2018-05-18T08:14:03.509Z,15.00
2018-05-18T08:16:31.210Z,15.50
2018-05-18T08:18:58.756Z,15.90
2018-05-18T08:21:26.286Z,15.90
2018-05-18T08:23:54.077Z,15.90
2018-05-18T08:26:21.697Z,15.70
2018-05-18T08:29:01.037Z,15.80
2018-05-18T08:31:29.353Z,16.20
2018-05-18T08:33:56.885Z,16.20
2018-05-18T08:36:24.435Z,16.70
2018-05-18T08:38:51.899Z,16.90
2018-05-18T08:41:19.472Z,17.00
2018-05-18T08:43:47.001Z,16.80
2018-05-18T08:46:14.610Z,16.80
2018-05-18T08:48:42.205Z,16.70
2018-05-18T08:51:09.763Z,16.80
2018-05-18T08:53:37.324Z,17.00
2018-05-18T08:56:04.898Z,17.50
2018-05-18T08:58:32.545Z,17.80
2018-05-18T09:01:00.368Z,17.80
2018-05-18T09:03:27.943Z,18.40
2018-05-18T09:05:55.498Z,18.70
2018-05-18T09:08:23.027Z,19.20
2018-05-18T09:10:50.661Z,19.00
2018-05-18T09:13:18.351Z,19.00
2018-05-18T09:15:46.763Z,20.50
2018-05-18T09:18:14.396Z,20.40
2018-05-18T09:20:42.590Z,21.60
2018-05-18T09:23:10.128Z,21.20
2018-05-18T09:25:37.860Z,20.40
2018-05-18T09:28:05.376Z,20.00
2018-05-18T09:30:32.935Z,19.90
2018-05-18T09:33:00.490Z,21.00
2018-05-18T09:35:28.106Z,22.50
2018-05-18T09:37:55.575Z,23.70
2018-05-18T09:40:23.330Z,25.70
2018-05-18T09:42:50.803Z,27.00
2018-05-18T09:45:18.581Z,27.70
2018-05-18T09:47:46.452Z,28.00
2018-05-18T09:50:14.684Z,29.10
2018-05-18T09:52:42.175Z,29.10
2018-05-18T09:55:10.042Z,29.00
2018-05-18T09:57:37.390Z,29.20
2018-05-18T10:00:05.154Z,29.10
2018-05-18T10:02:32.882Z,28.80
2018-05-18T10:05:00.370Z,28.90
2018-05-18T10:07:27.978Z,29.00
2018-05-18T10:09:55.561Z,27.70
2018-05-18T10:12:23.028Z,27.60
2018-05-18T10:14:50.512Z,28.30
2018-05-18T10:17:18.274Z,28.90
2018-05-18T10:19:45.845Z,29.50
2018-05-18T10:22:13.366Z,29.40
2018-05-18T10:24:41.022Z,28.60
2018-05-18T10:27:08.666Z,29.50
2018-05-18T10:29:36.134Z,30.30
2018-05-18T10:32:03.640Z,29.70
2018-05-18T10:34:31.102Z,30.40
2018-05-18T10:36:58.595Z,31.30
2018-05-18T10:39:26.081Z,31.70
2018-05-18T10:41:53.571Z,32.00
2018-05-18T10:44:21.101Z,31.70
2018-05-18T10:46:48.694Z,32.00
2018-05-18T10:49:16.150Z,32.20
2018-05-18T10:51:43.618Z,32.70
2018-05-18T10:54:11.354Z,33.10
2018-05-18T10:56:38.819Z,32.80
2018-05-18T10:59:06.627Z,33.70
2018-05-18T11:01:34.288Z,33.80
2018-05-18T11:04:01.961Z,34.20
2018-05-18T11:06:29.855Z,34.30
2018-05-18T11:08:57.706Z,34.10
2018-05-18T11:11:25.275Z,32.90
2018-05-18T11:13:52.968Z,32.70
2018-05-18T11:16:20.797Z,32.60
2018-05-18T11:18:48.381Z,32.90
2018-05-18T11:21:15.954Z,33.10
2018-05-18T11:23:43.415Z,33.70
2018-05-18T11:26:10.923Z,34.10
2018-05-18T11:28:38.439Z,33.80
2018-05-18T11:31:06.009Z,33.40
2018-05-18T11:33:33.475Z,33.60
2018-05-18T11:36:01.851Z,34.60
2018-05-18T11:38:30.848Z,34.20
2018-05-18T11:40:59.083Z,34.50
2018-05-18T11:43:26.678Z,34.40
2018-05-18T11:45:55.722Z,35.90
2018-05-18T11:48:23.439Z,35.90
2018-05-18T11:50:52.418Z,35.10
2018-05-18T11:53:19.888Z,35.10
2018-05-18T11:55:48.890Z,34.00
2018-05-18T11:58:17.863Z,34.30
2018-05-18T12:00:45.338Z,34.30
2018-05-18T12:03:14.315Z,35.00
2018-05-18T12:05:41.775Z,35.00
2018-05-18T12:08:09.350Z,35.60
2018-05-18T12:10:37.015Z,35.30
2018-05-18T12:13:06.007Z,35.90
2018-05-18T12:15:33.466Z,35.80
2018-05-18T12:18:01.755Z,35.90
2018-05-18T12:20:29.278Z,35.90
2018-05-18T12:22:56.759Z,35.90
2018-05-18T12:25:25.759Z,35.50
2018-05-18T12:27:54.051Z,34.70
2018-05-18T12:30:21.590Z,34.70
2018-05-18T12:32:50.562Z,34.30
2018-05-18T12:35:18.041Z,34.20
2018-05-18T12:37:45.555Z,34.50
2018-05-18T12:40:13.046Z,34.40
2018-05-18T12:42:40.881Z,33.50
2018-05-18T12:45:08.414Z,33.30
2018-05-18T12:47:35.954Z,33.00
2018-05-18T12:50:03.418Z,32.20
2018-05-18T12:52:30.887Z,31.80
2018-05-18T12:54:58.345Z,31.90
2018-05-18T12:57:26.244Z,32.50
2018-05-18T12:59:53.709Z,32.70
2018-05-18T13:02:21.246Z,33.00
2018-05-18T13:04:48.768Z,33.90
2018-05-18T13:07:16.237Z,33.70
2018-05-18T13:09:43.914Z,33.00
2018-05-18T13:12:11.375Z,32.80
2018-05-18T13:14:38.915Z,33.10
2018-05-18T13:17:07.884Z,34.50
2018-05-18T13:19:35.562Z,34.60
2018-05-18T13:22:03.038Z,35.40
2018-05-18T13:24:30.499Z,35.30
2018-05-18T13:26:57.966Z,35.90
2018-05-18T13:29:25.507Z,34.50
2018-05-18T13:31:52.974Z,33.40
2018-05-18T13:34:20.722Z,32.40
2018-05-18T13:36:48.486Z,31.70
2018-05-18T13:39:15.955Z,32.00
2018-05-18T13:41:45.248Z,32.70
2018-05-18T13:44:12.711Z,32.70
2018-05-18T13:46:40.474Z,33.40
2018-05-18T13:49:08.236Z,32.90
2018-05-18T13:51:35.820Z,31.60
2018-05-18T13:54:04.082Z,31.70
2018-05-18T13:56:31.823Z,30.90
2018-05-18T13:58:59.306Z,30.60
2018-05-18T14:01:27.061Z,29.70
2018-05-18T14:03:54.519Z,28.50
2018-05-18T14:06:21.987Z,28.50
2018-05-18T14:08:49.743Z,28.70
2018-05-18T14:11:17.510Z,30.00
2018-05-18T14:13:45.274Z,31.10
2018-05-18T14:16:12.730Z,31.00
2018-05-18T14:18:40.193Z,30.50
2018-05-18T14:21:07.652Z,30.70
2018-05-18T14:23:35.422Z,30.90
2018-05-18T14:26:03.206Z,31.10
2018-05-18T14:28:30.943Z,30.90
2018-05-18T14:30:58.400Z,30.80
2018-05-18T14:33:25.875Z,30.20
2018-05-18T14:35:53.349Z,30.30
2018-05-18T14:38:20.930Z,29.80
2018-05-18T14:40:48.538Z,29.00
2018-05-18T14:43:16.062Z,29.00
2018-05-18T14:45:43.534Z,29.30
2018-05-18T14:48:11.098Z,29.90
2018-05-18T14:50:38.601Z,29.30
2018-05-18T14:53:06.058Z,28.40
2018-05-18T14:55:33.594Z,28.30
2018-05-18T14:58:01.051Z,28.50
2018-05-18T15:00:28.818Z,28.70
2018-05-18T15:02:56.286Z,28.40
2018-05-18T15:05:23.752Z,28.70
2018-05-18T15:07:51.883Z,29.10
2018-05-18T15:10:19.576Z,29.40
2018-05-18T15:12:47.338Z,28.80
2018-05-18T15:15:14.802Z,28.20
2018-05-18T15:17:42.258Z,27.80
2018-05-18T15:20:09.730Z,27.80
2018-05-18T15:22:37.474Z,27.50
2018-05-18T15:25:04.947Z,26.40
2018-05-18T15:27:32.437Z,25.60
2018-05-18T15:29:59.904Z,25.50
2018-05-18T15:32:27.370Z,24.80
2018-05-18T15:34:54.835Z,24.30
2018-05-18T15:37:22.327Z,24.10
2018-05-18T15:39:49.774Z,23.80
2018-05-18T15:42:17.605Z,23.60
2018-05-18T15:44:45.079Z,23.20
2018-05-18T15:47:12.590Z,22.90
2018-05-18T15:49:40.051Z,22.50
2018-05-18T15:52:07.514Z,22.50
2018-05-18T15:54:35.053Z,22.50
2018-05-18T15:57:02.538Z,22.50
2018-05-18T15:59:29.999Z,22.60
2018-05-18T16:01:57.643Z,22.40
2018-05-18T16:04:25.226Z,22.10
2018-05-18T16:06:52.642Z,21.80
2018-05-18T16:09:20.318Z,21.70
2018-05-18T16:11:47.793Z,21.90
2018-05-18T16:14:15.335Z,22.00
2018-05-18T16:16:43.087Z,21.80
2018-05-18T16:19:10.558Z,21.80
2018-05-18T16:21:38.226Z,21.80
2018-05-18T16:24:05.690Z,22.00
2018-05-18T16:26:33.151Z,22.00
2018-05-18T16:29:00.690Z,21.70
2018-05-18T16:31:28.455Z,21.70
2018-05-18T16:33:56.429Z,21.80
2018-05-18T16:36:23.987Z,21.80
2018-05-18T16:38:51.455Z,21.70
2018-05-18T16:41:18.915Z,21.50
2018-05-18T16:43:46.663Z,21.30
2018-05-18T16:46:15.658Z,20.80
2018-05-18T16:48:43.123Z,20.80
2018-05-18T16:51:10.621Z,20.70
2018-05-18T16:53:38.080Z,20.70
2018-05-18T16:56:05.805Z,20.70
2018-05-18T16:58:33.478Z,20.50
2018-05-18T17:01:01.273Z,20.50
2018-05-18T17:03:28.726Z,20.50
2018-05-18T17:05:56.250Z,20.70
2018-05-18T17:08:24.005Z,20.80
2018-05-18T17:10:53.003Z,20.20
2018-05-18T17:13:21.980Z,20.00
2018-05-18T17:15:49.459Z,20.00
2018-05-18T17:18:17.019Z,19.90
2018-05-18T17:20:44.473Z,19.70
2018-05-18T17:23:12.135Z,19.70
2018-05-18T17:25:41.132Z,19.60
2018-05-18T17:28:08.594Z,19.60
2018-05-18T17:30:36.356Z,19.70
2018-05-18T17:33:04.643Z,19.10
2018-05-18T17:35:32.190Z,19.00
2018-05-18T17:37:59.659Z,19.10
2018-05-18T17:40:27.338Z,19.10
2018-05-18T17:42:54.879Z,19.10
2018-05-18T17:45:22.559Z,19.00
2018-05-18T17:47:50.306Z,19.10
2018-05-18T17:50:18.402Z,19.00
2018-05-18T17:52:45.942Z,18.90
2018-05-18T17:55:14.310Z,18.90
2018-05-18T17:57:43.283Z,19.00
2018-05-18T18:00:10.746Z,19.00
2018-05-18T18:02:38.239Z,18.80
2018-05-18T18:05:05.700Z,18.90
2018-05-18T18:07:33.163Z,18.80
2018-05-18T18:10:00.914Z,18.70
2018-05-18T18:12:28.674Z,18.80
2018-05-18T18:14:57.633Z,18.80
2018-05-18T18:17:25.128Z,18.80
2018-05-18T18:19:54.086Z,18.40
2018-05-18T18:22:21.635Z,18.50
2018-05-18T18:24:49.340Z,18.30
2018-05-18T18:27:18.339Z,18.00
2018-05-18T18:29:47.334Z,18.00
2018-05-18T18:32:15.627Z,17.80
2018-05-18T18:34:43.088Z,17.80
2018-05-18T18:37:10.563Z,17.80
2018-05-18T18:39:38.035Z,17.70
2018-05-18T18:42:05.506Z,17.60
2018-05-18T18:44:32.966Z,17.60
2018-05-18T18:47:00.426Z,17.60
2018-05-18T18:49:27.894Z,17.50
2018-05-18T18:51:55.361Z,17.30
2018-05-18T18:54:23.135Z,17.30
2018-05-18T18:56:50.902Z,17.20
2018-05-18T18:59:19.894Z,17.10
2018-05-18T19:01:47.374Z,17.10
2018-05-18T19:04:14.835Z,17.00
2018-05-18T19:06:42.307Z,17.00
2018-05-18T19:09:09.775Z,16.90
2018-05-18T19:11:37.246Z,16.80
2018-05-18T19:14:04.950Z,16.80
2018-05-18T19:16:32.714Z,16.60
2018-05-18T19:19:00.484Z,16.60
2018-05-18T19:21:27.939Z,16.60
2018-05-18T19:23:55.403Z,16.50
2018-05-18T19:26:23.783Z,16.40
2018-05-18T19:28:51.256Z,16.30
2018-05-18T19:31:18.733Z,16.30
2018-05-18T19:33:46.206Z,16.20
2018-05-18T19:36:13.918Z,16.20
2018-05-18T19:38:41.379Z,16.10
2018-05-18T19:41:08.847Z,16.00
2018-05-18T19:43:36.603Z,16.00
2018-05-18T19:46:05.574Z,15.90
2018-05-18T19:48:33.054Z,15.90
2018-05-18T19:51:00.638Z,15.70
2018-05-18T19:53:28.870Z,15.60
2018-05-18T19:55:56.646Z,15.60
2018-05-18T19:58:24.119Z,15.60
2018-05-18T20:00:51.591Z,15.50
2018-05-18T20:03:19.066Z,15.50
2018-05-18T20:05:46.596Z,15.30
2018-05-18T20:08:14.068Z,15.20
2018-05-18T20:10:42.294Z,15.10
2018-05-18T20:13:09.779Z,15.10
2018-05-18T20:15:37.250Z,15.10
2018-05-18T20:18:04.710Z,15.00
2018-05-18T20:20:32.471Z,14.90
2018-05-18T20:22:59.942Z,14.80
2018-05-18T20:25:27.407Z,14.60
2018-05-18T20:27:55.753Z,14.50
2018-05-18T20:30:23.472Z,14.50
2018-05-18T20:32:50.986Z,14.50
2018-05-18T20:35:18.595Z,14.40
2018-05-18T20:37:46.296Z,14.40
2018-05-18T20:40:14.571Z,14.20
2018-05-18T20:42:42.032Z,14.10
2018-05-18T20:45:09.638Z,14.00
2018-05-18T20:47:37.030Z,14.00
2018-05-18T20:50:04.578Z,13.90
2018-05-18T20:52:32.071Z,13.80
2018-05-18T20:55:00.300Z,13.70
2018-05-18T20:57:28.023Z,13.70
2018-05-18T20:59:55.492Z,13.70
2018-05-18T21:02:23.165Z,13.60
2018-05-18T21:04:50.702Z,13.60
2018-05-18T21:07:18.463Z,13.60
2018-05-18T21:09:46.854Z,13.60
2018-05-18T21:12:14.391Z,13.50
2018-05-18T21:14:41.858Z,13.50
2018-05-18T21:17:09.382Z,13.40
2018-05-18T21:19:36.981Z,13.30
2018-05-18T21:22:04.445Z,13.30
2018-05-18T21:24:32.218Z,14.90
2018-05-18T21:26:59.980Z,13.00
2018-05-18T21:29:27.742Z,12.90
2018-05-18T21:31:55.235Z,12.80
2018-05-18T21:34:22.713Z,12.70
2018-05-18T21:36:50.351Z,12.80
2018-05-18T21:39:17.808Z,12.80
2018-05-18T21:41:45.270Z,12.80
2018-05-18T21:44:12.747Z,12.80
2018-05-18T21:46:40.211Z,12.90
2018-05-18T21:49:07.714Z,12.90
2018-05-18T21:51:35.175Z,12.80
2018-05-18T21:54:02.941Z,12.70
2018-05-18T21:56:30.705Z,12.60
2018-05-18T21:58:58.471Z,12.50
2018-05-18T22:01:26.236Z,12.40
2018-05-18T22:03:53.715Z,12.40
2018-05-18T22:06:21.455Z,12.30
2018-05-18T22:08:48.919Z,12.40
2018-05-18T22:11:16.600Z,12.30
2018-05-18T22:13:44.138Z,12.40
2018-05-18T22:16:11.897Z,12.40
2018-05-18T22:18:39.614Z,12.30
2018-05-18T22:21:07.126Z,12.30
2018-05-18T22:23:34.843Z,12.30
2018-05-18T22:26:02.303Z,12.20
2018-05-18T22:28:29.802Z,12.10
2018-05-18T22:30:57.571Z,12.10
2018-05-18T22:33:25.339Z,12.10
2018-05-18T22:35:53.097Z,12.10
2018-05-18T22:38:20.778Z,12.10
2018-05-18T22:40:48.318Z,12.20
2018-05-18T22:43:16.090Z,12.10
2018-05-18T22:45:43.854Z,12.10
2018-05-18T22:48:11.615Z,12.00
2018-05-18T22:50:39.387Z,11.90
2018-05-18T22:53:07.146Z,11.80
2018-05-18T22:55:34.913Z,11.80
2018-05-18T22:58:02.682Z,11.70
2018-05-18T23:00:30.154Z,11.80
2018-05-18T23:02:57.826Z,11.70
2018-05-18T23:05:25.358Z,11.60
2018-05-18T23:07:53.077Z,11.60
2018-05-18T23:10:20.551Z,11.60
2018-05-18T23:12:48.013Z,11.50
2018-05-18T23:15:15.809Z,11.50
2018-05-18T23:17:43.279Z,11.40
2018-05-18T23:20:10.959Z,11.40
2018-05-18T23:22:38.483Z,11.30
2018-05-18T23:25:05.954Z,11.30
2018-05-18T23:27:33.710Z,11.20
2018-05-18T23:30:01.185Z,11.20
2018-05-18T23:32:28.659Z,11.20
2018-05-18T23:34:56.395Z,11.10
2018-05-18T23:37:24.079Z,11.20
2018-05-18T23:39:51.610Z,11.10
2018-05-18T23:42:19.383Z,11.20
2018-05-18T23:44:47.147Z,11.20
2018-05-18T23:47:14.620Z,11.20
2018-05-18T23:49:42.338Z,11.20
2018-05-18T23:52:09.826Z,11.20
2018-05-18T23:54:37.466Z,11.20
2018-05-18T23:57:05.047Z,11.20
2018-05-18T23:59:32.810Z,11.20
